Time;durP1;ratioP1;P1;durP2;ratioP2;P2;SDS_P1;SDS_P2;PMS_P1;PMS_P2;Temp;Humidity;BMP_temperature;BMP_pressure;BME280_temperature;BME280_humidity;BME280_pressure;Samples;Min_cycle;Max_cycle;Signal;HPM_P1;HPM_P2
2021/11/14 00:00:04;;;;;;;16.10;8.88;;;14.50;99.90;;;;;;5096500;28;21253;-70
2021/11/14 00:02:30;;;;;;;21.50;9.35;;;14.50;99.90;;;;;;5101558;28;20420;-71
2021/11/14 00:04:56;;;;;;;19.83;9.03;;;14.50;99.90;;;;;;5092583;28;20455;-70
2021/11/14 00:07:21;;;;;;;19.20;9.00;;;14.50;99.90;;;;;;5096275;28;20416;-70
2021/11/14 00:09:47;;;;;;;18.07;8.87;;;14.50;99.90;;;;;;5090695;28;20424;-70
2021/11/14 00:12:13;;;;;;;15.87;8.83;;;14.50;99.90;;;;;;5094822;28;20401;-69
2021/11/14 00:14:38;;;;;;;23.10;9.68;;;14.50;99.90;;;;;;5102575;28;20412;-70
2021/11/14 00:17:04;;;;;;;17.00;9.47;;;14.50;99.90;;;;;;5104927;28;20461;-70
2021/11/14 00:19:30;;;;;;;14.75;8.23;;;14.50;99.90;;;;;;5100495;28;20943;-70
2021/11/14 00:21:56;;;;;;;16.70;7.90;;;14.50;99.90;;;;;;5104979;28;20415;-70
2021/11/14 00:24:22;;;;;;;14.77;7.78;;;14.50;99.90;;;;;;5104191;28;20441;-70
2021/11/14 00:26:47;;;;;;;13.30;7.80;;;14.50;99.90;;;;;;5084765;28;20412;-70
2021/11/14 00:29:13;;;;;;;16.57;7.63;;;14.40;99.90;;;;;;5089828;28;20473;-70
2021/11/14 00:31:39;;;;;;;18.95;8.48;;;14.40;99.90;;;;;;5080089;28;20826;-69
2021/11/14 00:34:06;;;;;;;18.45;8.63;;;14.40;99.90;;;;;;5096590;28;20393;-69
2021/11/14 00:36:42;;;;;;;17.23;8.60;;;14.50;99.90;;;;;;5085685;28;20416;-69
2021/11/14 00:39:11;;;;;;;18.20;8.60;;;14.40;99.90;;;;;;5085723;28;20415;-70
2021/11/14 00:41:37;;;;;;;15.80;8.85;;;14.50;99.90;;;;;;5083996;28;20956;-69
2021/11/14 00:44:04;;;;;;;18.63;9.10;;;14.50;99.90;;;;;;5105896;28;20879;-70
2021/11/14 00:46:30;;;;;;;16.00;8.85;;;14.50;99.90;;;;;;5097956;28;20413;-69
2021/11/14 00:48:56;;;;;;;19.48;9.43;;;14.50;99.90;;;;;;5101008;28;20404;-70
2021/11/14 00:51:28;;;;;;;16.05;9.05;;;14.50;99.90;;;;;;5102165;28;20507;-70
2021/11/14 00:53:58;;;;;;;16.17;9.10;;;14.50;99.90;;;;;;5100769;28;20804;-70
2021/11/14 00:56:24;;;;;;;15.13;9.60;;;14.50;99.90;;;;;;5105435;28;20410;-69
2021/11/14 00:58:50;;;;;;;21.38;10.43;;;14.40;99.90;;;;;;5102168;28;20412;-70
2021/11/14 01:01:17;;;;;;;16.92;9.70;;;14.40;99.90;;;;;;5097764;28;20922;-70
2021/11/14 01:03:43;;;;;;;18.70;9.90;;;14.40;99.90;;;;;;5097375;28;20414;-70
2021/11/14 01:06:08;;;;;;;19.63;9.20;;;14.40;99.90;;;;;;5101026;28;20436;-69
2021/11/14 01:08:34;;;;;;;17.13;10.10;;;14.40;99.90;;;;;;5100105;28;20408;-70
2021/11/14 01:11:04;;;;;;;19.85;10.60;;;14.40;99.90;;;;;;5097649;28;20412;-70
2021/11/14 01:13:32;;;;;;;16.13;10.00;;;14.40;99.90;;;;;;5099660;28;20400;-69
2021/11/14 01:15:59;;;;;;;19.65;10.85;;;14.40;99.90;;;;;;5099930;28;20400;-69
2021/11/14 01:18:25;;;;;;;16.63;10.32;;;14.40;99.90;;;;;;5093234;28;20418;-69
2021/11/14 01:20:58;;;;;;;17.98;10.93;;;14.40;99.90;;;;;;5101112;28;20422;-69
2021/11/14 01:23:25;;;;;;;18.08;11.40;;;14.40;99.90;;;;;;5094255;28;21084;-69
2021/11/14 01:25:51;;;;;;;18.65;11.05;;;14.40;99.90;;;;;;5093719;28;20416;-70
2021/11/14 01:28:17;;;;;;;16.40;11.10;;;14.30;99.90;;;;;;5102197;28;20866;-70
2021/11/14 01:30:47;;;;;;;21.17;11.15;;;14.40;99.90;;;;;;5079157;28;21006;-70
2021/11/14 01:33:14;;;;;;;20.55;11.55;;;14.30;99.90;;;;;;5096849;28;20412;-70
2021/11/14 01:35:40;;;;;;;21.98;12.07;;;14.40;99.90;;;;;;5076891;28;20434;-70
2021/11/14 01:38:06;;;;;;;19.80;11.50;;;14.40;99.90;;;;;;5104625;28;20420;-70
2021/11/14 01:40:39;;;;;;;21.67;11.90;;;14.30;99.90;;;;;;5087549;28;20423;-70
2021/11/14 01:43:06;;;;;;;18.87;11.90;;;14.30;99.90;;;;;;5084571;28;20912;-70
2021/11/14 01:45:32;;;;;;;25.33;12.83;;;14.30;99.90;;;;;;5104714;28;20400;-69
2021/11/14 01:47:58;;;;;;;20.95;12.20;;;14.30;99.90;;;;;;5098772;28;20894;-70
2021/11/14 01:50:23;;;;;;;22.53;13.10;;;14.30;99.90;;;;;;5104168;28;20408;-70
2021/11/14 01:52:52;;;;;;;24.57;13.50;;;14.30;99.90;;;;;;5078641;28;20422;-69
2021/11/14 01:55:25;;;;;;;21.20;13.00;;;14.30;99.90;;;;;;5101761;28;20735;-69
2021/11/14 01:57:52;;;;;;;20.55;12.70;;;14.30;99.90;;;;;;5099141;28;20958;-69
2021/11/14 02:00:29;;;;;;;24.17;13.27;;;14.30;99.90;;;;;;5103414;28;20412;-69
2021/11/14 02:02:55;;;;;;;23.90;13.30;;;14.20;99.90;;;;;;5085669;28;20416;-69
2021/11/14 02:05:23;;;;;;;26.23;14.20;;;14.20;99.90;;;;;;5099156;28;20428;-70
2021/11/14 02:07:55;;;;;;;24.58;13.52;;;14.10;99.90;;;;;;5100570;28;20420;-70
2021/11/14 02:10:23;;;;;;;26.35;14.20;;;14.10;99.90;;;;;;5104009;28;20502;-70
2021/11/14 02:12:48;;;;;;;23.25;13.80;;;14.10;99.90;;;;;;5092823;28;20492;-70
2021/11/14 02:15:14;;;;;;;27.63;14.80;;;14.00;99.90;;;;;;5101398;28;20495;-71
2021/11/14 02:17:40;;;;;;;23.52;13.73;;;14.00;99.90;;;;;;5099649;28;20419;-70
2021/11/14 02:20:08;;;;;;;24.23;14.60;;;14.00;99.90;;;;;;5102763;28;20405;-69
2021/11/14 02:22:34;;;;;;;24.48;14.05;;;14.00;99.90;;;;;;5101209;28;20731;-70
2021/11/14 02:25:00;;;;;;;24.38;14.63;;;14.00;99.90;;;;;;5101839;28;20427;-69
2021/11/14 02:27:26;;;;;;;26.45;14.85;;;14.00;99.90;;;;;;5096292;28;20973;-69
2021/11/14 02:29:52;;;;;;;22.67;13.70;;;14.00;99.90;;;;;;5100338;28;20404;-69
2021/11/14 02:32:18;;;;;;;26.23;13.68;;;14.00;99.90;;;;;;5101319;28;20971;-69
2021/11/14 02:34:43;;;;;;;27.17;13.30;;;14.00;99.90;;;;;;5094390;28;20474;-69
2021/11/14 02:37:09;;;;;;;24.60;13.83;;;14.00;99.90;;;;;;5102538;28;20404;-69
2021/11/14 02:39:35;;;;;;;25.33;13.52;;;14.00;99.90;;;;;;5099801;28;20429;-70
2021/11/14 02:42:03;;;;;;;24.23;13.32;;;14.00;99.90;;;;;;5102556;28;20415;-69
2021/11/14 02:44:28;;;;;;;26.88;14.20;;;14.00;99.90;;;;;;5101859;28;20419;-70
2021/11/14 02:46:55;;;;;;;21.60;13.40;;;14.10;99.90;;;;;;5100577;28;20511;-71
2021/11/14 02:49:21;;;;;;;21.77;12.83;;;14.10;99.90;;;;;;5101720;28;20465;-70
2021/11/14 02:51:46;;;;;;;22.67;13.07;;;14.10;99.90;;;;;;5104173;28;20396;-69
2021/11/14 02:54:12;;;;;;;21.43;12.90;;;14.10;99.90;;;;;;5082525;28;20408;-70
2021/11/14 02:56:38;;;;;;;23.85;13.00;;;14.10;99.90;;;;;;5081726;28;20439;-71
2021/11/14 02:59:04;;;;;;;24.73;13.27;;;14.10;99.90;;;;;;5100292;28;20431;-69
2021/11/14 03:01:53;;;;;;;22.90;12.82;;;14.10;99.90;;;;;;5103337;28;20469;-70
2021/11/14 03:04:22;;;;;;;23.77;13.48;;;14.10;99.90;;;;;;5103201;28;20416;-70
2021/11/14 03:06:50;;;;;;;27.98;14.40;;;14.10;99.90;;;;;;5097493;28;20815;-70
2021/11/14 03:09:16;;;;;;;23.08;14.45;;;14.10;99.90;;;;;;5085279;28;20472;-70
2021/11/14 03:11:42;;;;;;;27.20;14.98;;;14.10;99.90;;;;;;5100189;28;20436;-70
2021/11/14 03:14:08;;;;;;;28.30;15.40;;;14.10;99.90;;;;;;5102502;28;20416;-69
2021/11/14 03:16:34;;;;;;;25.77;15.40;;;14.10;99.90;;;;;;5093527;28;20457;-69
2021/11/14 03:19:01;;;;;;;27.33;16.08;;;14.10;99.90;;;;;;5096713;28;20408;-70
2021/11/14 03:21:27;;;;;;;26.40;15.93;;;14.00;99.90;;;;;;5101879;28;20421;-69
2021/11/14 03:23:54;;;;;;;30.50;16.75;;;14.00;99.90;;;;;;5101045;28;20400;-70
2021/11/14 03:26:21;;;;;;;28.07;17.17;;;14.00;99.90;;;;;;5095548;28;20509;-70
2021/11/14 03:28:47;;;;;;;26.98;17.17;;;14.00;99.90;;;;;;5100651;28;20450;-69
2021/11/14 03:31:13;;;;;;;30.67;17.88;;;14.00;99.90;;;;;;5098903;28;20898;-70
2021/11/14 03:33:39;;;;;;;33.08;18.00;;;14.00;99.90;;;;;;5101291;28;20408;-70
2021/11/14 03:36:11;;;;;;;30.42;18.08;;;14.00;99.90;;;;;;5100683;28;20492;-70
2021/11/14 03:38:41;;;;;;;32.08;18.65;;;14.00;99.90;;;;;;5103423;28;20495;-70
2021/11/14 03:41:09;;;;;;;29.05;18.63;;;14.00;99.90;;;;;;5076412;28;20423;-70
2021/11/14 03:43:36;;;;;;;29.23;17.47;;;14.00;99.90;;;;;;5094586;28;20403;-69
2021/11/14 03:46:03;;;;;;;31.02;18.05;;;14.00;99.90;;;;;;5100588;28;20974;-69
2021/11/14 03:48:30;;;;;;;33.28;19.25;;;14.00;99.90;;;;;;5099420;28;20420;-69
2021/11/14 03:50:56;;;;;;;36.78;20.17;;;14.00;99.90;;;;;;5100282;28;20417;-69
2021/11/14 03:53:23;;;;;;;32.28;19.13;;;14.00;99.90;;;;;;5102148;28;20411;-69
2021/11/14 03:55:50;;;;;;;35.33;20.65;;;14.00;99.90;;;;;;5106767;28;20408;-69
2021/11/14 03:58:16;;;;;;;36.72;20.50;;;14.00;99.90;;;;;;5107016;28;20422;-69
2021/11/14 04:00:48;;;;;;;38.63;21.38;;;14.00;99.90;;;;;;5080519;28;20440;-68
2021/11/14 04:03:15;;;;;;;41.83;21.65;;;14.00;99.90;;;;;;5081134;28;20413;-69
2021/11/14 04:05:43;;;;;;;36.92;20.77;;;13.90;99.90;;;;;;5100585;28;20962;-69
2021/11/14 04:08:10;;;;;;;35.13;21.40;;;13.90;99.90;;;;;;5106218;28;21169;-69
2021/11/14 04:10:36;;;;;;;39.03;21.63;;;13.90;99.90;;;;;;5095330;28;20463;-69
2021/11/14 04:13:03;;;;;;;38.05;21.42;;;13.90;99.90;;;;;;5097584;28;20427;-69
2021/11/14 04:15:29;;;;;;;39.50;21.75;;;13.90;99.90;;;;;;5104164;28;20410;-69
2021/11/14 04:17:57;;;;;;;44.17;22.57;;;13.90;99.90;;;;;;5096870;28;20421;-70
2021/11/14 04:20:26;;;;;;;39.22;21.55;;;13.90;99.90;;;;;;5105577;28;20536;-70
2021/11/14 04:22:52;;;;;;;42.17;23.10;;;13.90;99.90;;;;;;5081724;28;20429;-70
2021/11/14 04:25:19;;;;;;;48.72;23.58;;;13.90;99.90;;;;;;5106583;28;20767;-70
2021/11/14 04:27:45;;;;;;;51.47;23.53;;;13.90;99.90;;;;;;5080979;28;20509;-70
2021/11/14 04:30:11;;;;;;;49.30;23.92;;;13.90;99.90;;;;;;5096195;28;20503;-69
2021/11/14 04:32:37;;;;;;;46.78;23.75;;;13.90;99.90;;;;;;5096553;28;20774;-69
2021/11/14 04:35:03;;;;;;;44.03;23.33;;;13.90;99.90;;;;;;5098586;28;20405;-69
2021/11/14 04:37:29;;;;;;;50.15;24.23;;;13.90;99.90;;;;;;5097179;28;20420;-69
2021/11/14 04:39:54;;;;;;;50.97;24.50;;;13.90;99.90;;;;;;5095294;28;20894;-70
2021/11/14 04:42:20;;;;;;;50.63;24.87;;;13.90;99.90;;;;;;5104085;28;20419;-69
2021/11/14 04:44:46;;;;;;;47.37;23.20;;;13.90;99.90;;;;;;5093209;28;20471;-69
2021/11/14 04:47:11;;;;;;;43.58;22.02;;;13.80;99.90;;;;;;5104287;28;20942;-69
2021/11/14 04:49:37;;;;;;;43.05;22.77;;;13.80;99.90;;;;;;5099144;28;20408;-69
2021/11/14 04:52:04;;;;;;;43.55;21.95;;;13.80;99.90;;;;;;5103311;28;20407;-69
2021/11/14 04:54:30;;;;;;;40.72;20.98;;;13.80;99.90;;;;;;5104725;28;20408;-69
2021/11/14 04:56:56;;;;;;;41.42;21.60;;;13.70;99.90;;;;;;5103056;28;20419;-70
2021/11/14 04:59:22;;;;;;;38.00;19.67;;;13.70;99.90;;;;;;5100939;28;21004;-69
2021/11/14 05:01:47;;;;;;;36.55;19.40;;;13.70;99.90;;;;;;5103136;28;20912;-70
2021/11/14 05:04:14;;;;;;;32.47;18.10;;;13.70;99.90;;;;;;5106160;28;20408;-69
2021/11/14 05:06:39;;;;;;;31.00;17.38;;;13.70;99.90;;;;;;5105803;28;20215;-70
2021/11/14 05:09:05;;;;;;;;;;;13.30;99.90;;;;;;5103195;28;20028;-70
2021/11/14 05:11:30;;;;;;;;;;;13.00;99.90;;;;;;5105496;28;20382;-70
2021/11/14 05:13:56;;;;;;;;;;;12.70;99.90;;;;;;5106268;28;19908;-70
2021/11/14 05:16:22;;;;;;;;;;;12.60;99.90;;;;;;5103231;28;19908;-69
2021/11/14 05:18:47;;;;;;;;;;;12.40;99.90;;;;;;5106318;28;19919;-70
2021/11/14 05:21:13;;;;;;;;;;;12.30;99.90;;;;;;5103943;28;20002;-69
2021/11/14 05:23:38;;;;;;;;;;;12.30;99.90;;;;;;5101312;28;20353;-69
2021/11/14 05:26:04;;;;;;;;;;;12.20;99.90;;;;;;5100620;28;19962;-69
2021/11/14 05:28:30;;;;;;;;;;;12.10;99.90;;;;;;5102591;28;19915;-69
2021/11/14 05:30:56;;;;;;;;;;;12.10;99.90;;;;;;5109243;28;19916;-69
2021/11/14 05:33:22;;;;;;;;;;;12.00;99.90;;;;;;5106430;28;19935;-68
2021/11/14 05:35:48;;;;;;;;;;;12.00;99.90;;;;;;5105713;28;19912;-69
2021/11/14 05:38:14;;;;;;;;;;;12.00;99.90;;;;;;5105328;28;20537;-69
2021/11/14 05:40:39;;;;;;;;;;;11.90;99.90;;;;;;5106883;27;19919;-69
2021/11/14 05:43:05;;;;;;;;;;;11.90;99.90;;;;;;5104356;28;19912;-69
2021/11/14 05:45:31;;;;;;;;;;;11.90;99.90;;;;;;5107909;28;20675;-69
2021/11/14 05:47:56;;;;;;;;;;;11.80;99.90;;;;;;5103585;28;20379;-68
2021/11/14 05:50:22;;;;;;;;;;;11.80;99.90;;;;;;5088006;28;19981;-68
2021/11/14 05:52:47;;;;;;;;;;;11.80;99.90;;;;;;5078001;28;19972;-69
2021/11/14 05:55:13;;;;;;;;;;;11.80;99.90;;;;;;5105966;28;19957;-70
2021/11/14 06:00:14;;;;;;;;;;;11.80;99.90;;;;;;5104350;28;19911;-69
2021/11/14 06:02:44;;;;;;;;;;;11.80;99.90;;;;;;5107240;28;19951;-69
2021/11/14 06:05:17;;;;;;;;;;;11.80;99.90;;;;;;5104256;28;19916;-70
2021/11/14 06:07:44;;;;;;;;;;;11.80;99.90;;;;;;5082522;28;20384;-70
2021/11/14 06:10:09;;;;;;;;;;;11.80;99.90;;;;;;5099736;28;20404;-69
2021/11/14 06:12:37;;;;;;;;;;;11.70;99.90;;;;;;5101054;28;20007;-69
2021/11/14 06:15:04;;;;;;;;;;;11.70;99.90;;;;;;5105894;27;19965;-69
2021/11/14 06:17:30;;;;;;;;;;;11.70;99.90;;;;;;5103829;28;19912;-69
2021/11/14 06:19:56;;;;;;;;;;;11.70;99.90;;;;;;5102025;28;19920;-69
2021/11/14 06:22:21;;;;;;;;;;;11.70;99.90;;;;;;5101167;28;19950;-68
2021/11/14 06:24:47;;;;;;;;;;;11.70;99.90;;;;;;5103472;28;19929;-70
2021/11/14 06:27:13;;;;;;;;;;;11.70;99.90;;;;;;5081838;28;20387;-69
2021/11/14 06:29:39;;;;;;;;;;;11.70;99.90;;;;;;5098632;28;19911;-69
2021/11/14 06:32:05;;;;;;;;;;;11.70;99.90;;;;;;5085938;28;20006;-69
2021/11/14 06:34:30;;;;;;;;;;;11.70;99.90;;;;;;5102477;28;20007;-68
2021/11/14 06:36:56;;;;;;;;;;;11.70;99.90;;;;;;5109239;27;19949;-69
2021/11/14 06:39:21;;;;;;;;;;;11.70;99.90;;;;;;5098959;28;19955;-69
2021/11/14 06:41:47;;;;;;;;;;;11.70;99.90;;;;;;5098577;28;19912;-68
2021/11/14 06:44:12;;;;;;;;;;;11.70;99.90;;;;;;5099122;28;19972;-69
2021/11/14 06:46:38;;;;;;;;;;;11.70;99.90;;;;;;5094948;28;19914;-70
2021/11/14 06:49:04;;;;;;;;;;;11.70;99.90;;;;;;5105495;28;19926;-70
2021/11/14 06:51:29;;;;;;;;;;;11.70;99.90;;;;;;5083187;28;20360;-69
2021/11/14 06:53:55;;;;;;;;;;;11.60;99.90;;;;;;5075696;28;20010;-70
2021/11/14 06:56:21;;;;;;;;;;;11.60;99.90;;;;;;5096176;28;21006;-69
2021/11/14 06:58:47;;;;;;;;;;;11.60;99.90;;;;;;5096825;28;19916;-69
2021/11/14 07:01:13;;;;;;;;;;;11.60;99.90;;;;;;5095435;28;19938;-70
2021/11/14 07:03:38;;;;;;;;;;;11.60;99.90;;;;;;5100902;28;19936;-69
2021/11/14 07:06:04;;;;;;;;;;;11.60;99.90;;;;;;5104023;28;20699;-69
2021/11/14 07:08:29;;;;;;;;;;;11.60;99.90;;;;;;5096416;28;19916;-69
2021/11/14 07:10:55;;;;;;;;;;;11.60;99.90;;;;;;5101066;28;19957;-70
2021/11/14 07:13:20;;;;;;;;;;;11.50;99.90;;;;;;5097645;28;19956;-70
2021/11/14 07:15:46;;;;;;;;;;;11.60;99.90;;;;;;5098510;28;19997;-70
2021/11/14 07:18:11;;;;;;;;;;;11.60;99.90;;;;;;5083022;28;19951;-69
2021/11/14 07:20:37;;;;;;;;;;;11.60;99.90;;;;;;5100442;28;19918;-70
2021/11/14 07:23:03;;;;;;;;;;;11.60;99.90;;;;;;5082437;28;19954;-71
2021/11/14 07:25:28;;;;;;;;;;;11.60;99.90;;;;;;5100379;28;19916;-71
2021/11/14 07:27:54;;;;;;;;;;;11.50;99.90;;;;;;5096657;28;19955;-71
2021/11/14 07:30:21;;;;;;;;;;;11.50;99.90;;;;;;5097222;28;19999;-70
2021/11/14 07:32:46;;;;;;;;;;;11.60;99.90;;;;;;5091761;28;19919;-71
2021/11/14 07:35:14;;;;;;;;;;;11.60;99.90;;;;;;5095821;28;19911;-70
2021/11/14 07:37:40;;;;;;;;;;;11.60;99.90;;;;;;5099916;28;21192;-70
2021/11/14 07:40:09;;;;;;;;;;;11.60;99.90;;;;;;5099086;28;19941;-70
2021/11/14 07:42:37;;;;;;;;;;;11.60;99.90;;;;;;5093607;28;19908;-70
2021/11/14 07:45:06;;;;;;;;;;;11.60;99.90;;;;;;5099821;28;19980;-70
2021/11/14 07:47:32;;;;;;;;;;;11.60;99.90;;;;;;5095350;28;19922;-71
2021/11/14 07:49:57;;;;;;;;;;;11.60;99.90;;;;;;5102199;28;19915;-71
2021/11/14 07:52:24;;;;;;;;;;;11.60;99.90;;;;;;5083230;28;19919;-70
2021/11/14 07:54:51;;;;;;;;;;;11.60;99.90;;;;;;5097752;28;19919;-70
2021/11/14 07:57:16;;;;;;;;;;;11.60;99.90;;;;;;5092771;28;19919;-70
2021/11/14 07:59:42;;;;;;;;;;;11.60;99.90;;;;;;5103389;28;19912;-71
2021/11/14 08:02:09;;;;;;;;;;;11.60;99.90;;;;;;5086028;28;19907;-71
2021/11/14 08:04:34;;;;;;;;;;;11.60;99.90;;;;;;5097750;28;19915;-70
2021/11/14 08:07:00;;;;;;;;;;;11.60;99.90;;;;;;5085055;28;19911;-72
2021/11/14 08:09:26;;;;;;;;;;;11.60;99.90;;;;;;5104597;28;19916;-72
2021/11/14 08:11:51;;;;;;;;;;;11.60;99.90;;;;;;5083427;28;19973;-71
2021/11/14 08:14:17;;;;;;;;;;;11.60;99.90;;;;;;5086641;28;19908;-71
2021/11/14 08:16:42;;;;;;;;;;;11.60;99.90;;;;;;5085225;28;19908;-74
2021/11/14 08:19:08;;;;;;;;;;;11.60;99.90;;;;;;5076600;28;20585;-74
2021/11/14 08:21:33;;;;;;;;;;;11.60;99.90;;;;;;5100940;28;19965;-72
2021/11/14 08:23:59;;;;;;;;;;;11.60;99.90;;;;;;5095748;28;19919;-73
2021/11/14 08:26:24;;;;;;;;;;;11.60;99.90;;;;;;5097923;28;19911;-72
2021/11/14 08:28:50;;;;;;;;;;;11.60;99.90;;;;;;5080688;28;19959;-73
2021/11/14 08:31:20;;;;;;;;;;;11.60;99.90;;;;;;5084453;28;19916;-73
2021/11/14 08:33:49;;;;;;;;;;;11.60;99.90;;;;;;5101085;28;20367;-73
2021/11/14 08:36:15;;;;;;;;;;;11.70;99.90;;;;;;5100902;28;19918;-73
2021/11/14 08:38:41;;;;;;;;;;;11.70;99.90;;;;;;5098770;28;19911;-73
2021/11/14 08:41:07;;;;;;;;;;;11.70;99.90;;;;;;5104064;28;19965;-75
2021/11/14 08:43:32;;;;;;;;;;;11.70;99.90;;;;;;5089360;28;19944;-74
2021/11/14 08:45:58;;;;;;;;;;;11.70;99.90;;;;;;5108097;28;19934;-75
2021/11/14 08:48:24;;;;;;;;;;;11.70;99.90;;;;;;5094863;28;19969;-75
2021/11/14 08:50:51;;;;;;;;;;;11.70;99.90;;;;;;5108262;28;19912;-73
2021/11/14 08:53:16;;;;;;;;;;;11.70;99.90;;;;;;5089950;28;20519;-75
2021/11/14 08:55:42;;;;;;;;;;;11.70;99.90;;;;;;5106370;28;19911;-74
2021/11/14 08:58:07;;;;;;;;;;;11.70;99.90;;;;;;5103879;28;20431;-74
2021/11/14 09:00:33;;;;;;;;;;;11.70;99.90;;;;;;5094432;28;19911;-75
2021/11/14 09:03:00;;;;;;;;;;;11.70;99.90;;;;;;5106223;28;19911;-75
2021/11/14 09:05:30;;;;;;;;;;;11.70;99.90;;;;;;5106289;28;19954;-74
2021/11/14 09:07:56;;;;;;;;;;;11.70;99.90;;;;;;5105899;28;19915;-74
2021/11/14 09:10:22;;;;;;;;;;;11.80;99.90;;;;;;5103933;28;19916;-73
2021/11/14 09:12:48;;;;;;;;;;;11.70;99.90;;;;;;5089059;28;19934;-73
2021/11/14 09:15:14;;;;;;;;;;;11.80;99.90;;;;;;5106760;28;19912;-74
2021/11/14 09:17:40;;;;;;;;;;;11.80;99.90;;;;;;5086391;28;19934;-72
2021/11/14 09:20:06;;;;;;;;;;;11.80;99.90;;;;;;5102277;28;20439;-74
2021/11/14 09:22:33;;;;;;;;;;;11.80;99.90;;;;;;5102756;28;19961;-72
2021/11/14 09:24:58;;;;;;;;;;;11.80;99.90;;;;;;5089343;28;20440;-73
2021/11/14 09:27:24;;;;;;;;;;;11.80;99.90;;;;;;5102693;28;20002;-73
2021/11/14 09:29:49;;;;;;;;;;;11.90;99.90;;;;;;5085274;28;19995;-74
2021/11/14 09:32:15;;;;;;;;;;;11.90;99.90;;;;;;5084976;28;19918;-73
2021/11/14 09:34:40;;;;;;;;;;;11.90;99.90;;;;;;5106968;28;19907;-72
2021/11/14 09:37:06;;;;;;;;;;;11.90;99.90;;;;;;5086647;28;20020;-73
2021/11/14 09:39:32;;;;;;;;;;;11.90;99.90;;;;;;5104448;28;19915;-73
2021/11/14 09:41:57;;;;;;;;;;;11.90;99.90;;;;;;5095470;28;19915;-71
2021/11/14 09:44:23;;;;;;;;;;;11.90;99.90;;;;;;5106926;28;20014;-72
2021/11/14 09:46:54;;;;;;;;;;;11.90;99.90;;;;;;5102802;28;20356;-72
2021/11/14 09:49:20;;;;;;;;;;;12.00;99.90;;;;;;5104956;28;19916;-73
2021/11/14 09:51:47;;;;;;;;;;;12.00;99.90;;;;;;5085988;28;19912;-73
2021/11/14 09:54:12;;;;;;;;;;;12.00;99.90;;;;;;5102072;28;19947;-73
2021/11/14 09:56:38;;;;;;;;;;;12.00;99.90;;;;;;5083475;28;19954;-72
2021/11/14 09:59:04;;;;;;;;;;;12.00;99.90;;;;;;5089097;28;20396;-70
2021/11/14 10:01:29;;;;;;;;;;;12.00;99.90;;;;;;5103811;28;19912;-72
2021/11/14 10:03:55;;;;;;;;;;;12.00;99.90;;;;;;5106004;28;19915;-73
2021/11/14 10:06:21;;;;;;;;;;;12.00;99.90;;;;;;5095103;28;20151;-72
2021/11/14 10:08:47;;;;;;;;;;;12.00;99.90;;;;;;5102963;28;19926;-71
2021/11/14 10:11:13;;;;;;;;;;;12.00;99.90;;;;;;5101015;28;19912;-74
2021/11/14 10:13:45;;;;;;;;;;;12.00;99.90;;;;;;5103522;28;19912;-72
2021/11/14 10:16:12;;;;;;;;;;;12.00;99.90;;;;;;5100283;28;19995;-73
2021/11/14 10:18:39;;;;;;;;;;;12.00;99.90;;;;;;5105427;28;20352;-72
2021/11/14 10:21:05;;;;;;;;;;;12.00;99.90;;;;;;5084312;28;20264;-75
2021/11/14 10:23:32;;;;;;;;;;;12.00;99.90;;;;;;5101684;28;19919;-74
2021/11/14 10:26:02;;;;;;;;;;;12.00;99.90;;;;;;5104974;28;19988;-73
2021/11/14 10:28:28;;;;;;;;;;;12.10;99.90;;;;;;5103049;28;19915;-72
2021/11/14 10:30:55;;;;;;;;;;;12.10;99.90;;;;;;5104615;28;19981;-71
2021/11/14 10:33:23;;;;;;;;;;;12.10;99.90;;;;;;5102957;28;19935;-72
2021/11/14 10:35:50;;;;;;;;;;;12.10;99.90;;;;;;5105675;28;19923;-74
2021/11/14 10:38:21;;;;;;;;;;;12.10;99.90;;;;;;5088744;28;19912;-73
2021/11/14 10:40:51;;;;;;;;;;;12.20;99.90;;;;;;5103918;28;19934;-72
2021/11/14 10:43:18;;;;;;;;;;;12.20;99.90;;;;;;5104143;28;19916;-72
2021/11/14 10:45:44;;;;;;;;;;;12.20;99.90;;;;;;5104863;28;19911;-73
2021/11/14 10:48:12;;;;;;;;;;;12.30;99.90;;;;;;5102336;28;19919;-71
2021/11/14 10:50:40;;;;;;;;;;;12.30;99.90;;;;;;5101137;28;19907;-71
2021/11/14 10:53:07;;;;;;;;;;;12.30;99.90;;;;;;5085853;28;20006;-72
2021/11/14 10:55:40;;;;;;;;;;;12.30;99.90;;;;;;5103645;28;19912;-74
2021/11/14 10:58:05;;;;;;;;;;;12.30;99.90;;;;;;5102571;28;19923;-75
2021/11/14 11:00:31;;;;;;;;;;;12.30;99.90;;;;;;5104875;28;19911;-75
2021/11/14 11:03:00;;;;;;;;;;;12.30;99.90;;;;;;5102689;28;19911;-74
2021/11/14 11:05:27;;;;;;;;;;;12.30;99.90;;;;;;5104199;28;19929;-74
2021/11/14 11:08:00;;;;;;;;;;;12.30;99.90;;;;;;5087128;28;19915;-75
2021/11/14 11:10:30;;;;;;;;;;;12.30;99.90;;;;;;5101788;28;19916;-75
2021/11/14 11:12:56;;;;;;;;;;;12.20;99.90;;;;;;5103288;28;19926;-72
2021/11/14 11:15:22;;;;;;;;;;;12.20;99.90;;;;;;5099953;28;19911;-75
2021/11/14 11:17:49;;;;;;;;;;;12.20;99.90;;;;;;5065565;28;19938;-75
2021/11/14 11:20:19;;;;;;;;;;;12.20;99.90;;;;;;5097089;28;20555;-74
2021/11/14 11:22:49;;;;;;;;;;;12.20;99.90;;;;;;5103148;28;19916;-75
2021/11/14 11:25:15;;;;;;;;;;;12.20;99.90;;;;;;5080118;28;19961;-75
2021/11/14 11:27:51;;;;;;;;;;;12.30;99.90;;;;;;5099404;28;19916;-76
2021/11/14 11:30:24;;;;;;;;;;;12.30;99.90;;;;;;5086069;28;20003;-76
2021/11/14 11:32:50;;;;;;;;;;;12.40;99.90;;;;;;5087418;28;20387;-74
2021/11/14 11:35:15;;;;;;;;;;;12.50;99.90;;;;;;5083476;28;19916;-75
2021/11/14 11:37:41;;;;;;;;;;;12.50;99.90;;;;;;5100999;28;19994;-75
2021/11/14 11:40:09;;;;;;;;;;;12.50;99.90;;;;;;5102887;28;19924;-73
2021/11/14 11:42:35;;;;;;;;;;;12.60;99.90;;;;;;5104422;28;19916;-74
2021/11/14 11:45:02;;;;;;;;;;;12.60;99.90;;;;;;5098480;28;20615;-75
2021/11/14 11:47:28;;;;;;;;;;;12.60;99.90;;;;;;5092568;28;19923;-73
2021/11/14 11:49:54;;;;;;;;;;;12.60;99.90;;;;;;5101765;28;19919;-73
2021/11/14 11:52:19;;;;;;;;;;;12.70;99.90;;;;;;5079883;28;19916;-74
2021/11/14 11:54:48;;;;;;;;;;;12.70;99.90;;;;;;5103671;28;19916;-74
2021/11/14 11:57:14;;;;;;;;;;;12.70;99.90;;;;;;5104387;28;19972;-75
2021/11/14 11:59:40;;;;;;;;;;;12.70;99.90;;;;;;5104944;28;19915;-74
2021/11/14 12:02:19;;;;;;;;;;;12.70;99.90;;;;;;5104864;28;19908;-73
2021/11/14 12:04:45;;;;;;;;;;;12.70;99.90;;;;;;5104741;28;19916;-73
2021/11/14 12:07:13;;;;;;;;;;;12.70;99.90;;;;;;5105818;28;20308;-73
2021/11/14 12:09:40;;;;;;;;;;;12.70;99.90;;;;;;5103911;28;19946;-73
2021/11/14 12:12:17;;;;;;;;;;;12.70;99.90;;;;;;5104100;28;19920;-72
2021/11/14 12:14:43;;;;;;;;;;;12.70;99.90;;;;;;5109357;28;19912;-72
2021/11/14 12:17:09;;;;;;;;;;;12.70;99.90;;;;;;5109296;28;20383;-71
2021/11/14 12:19:37;;;;;;;;;;;12.70;99.90;;;;;;5109637;28;19964;-71
2021/11/14 12:22:03;;;;;;;;;;;12.70;99.90;;;;;;5106690;28;19912;-73
2021/11/14 12:24:30;;;;;;;;;;;12.80;99.90;;;;;;5106895;28;20425;-71
2021/11/14 12:26:55;;;;;;;;;;;12.80;99.90;;;;;;5107395;28;19912;-72
2021/11/14 12:29:32;;;;;;;;;;;12.80;99.90;;;;;;5108935;28;20334;-72
2021/11/14 12:31:59;;;;;;;;;;;12.90;99.90;;;;;;5107062;28;19907;-72
2021/11/14 12:34:27;;;;;;;;;;;12.90;99.90;;;;;;5108890;28;19916;-74
2021/11/14 12:37:04;;;;;;;;;;;12.90;99.90;;;;;;5107365;28;19919;-70
2021/11/14 12:39:30;;;;;;;;;;;12.90;99.90;;;;;;5109059;28;19931;-71
2021/11/14 12:41:57;;;;;;;;;;;12.90;99.90;;;;;;5104997;28;19911;-72
2021/11/14 12:44:28;;;;;;;;;;;12.90;99.90;;;;;;5108073;28;20566;-72
2021/11/14 12:46:54;;;;;;;;;;;12.80;99.90;;;;;;5088077;28;20009;-71
2021/11/14 12:49:19;;;;;;;;;;;12.80;99.90;;;;;;5103218;28;20638;-73
2021/11/14 12:51:52;;;;;;;;;;;12.80;99.90;;;;;;5092945;28;19994;-73
2021/11/14 12:54:18;;;;;;;;;;;12.80;99.90;;;;;;5107269;28;19907;-73
2021/11/14 12:56:49;;;;;;;;;;;12.80;99.90;;;;;;5104273;28;19918;-73
2021/11/14 12:59:15;;;;;;;;;;;12.80;99.90;;;;;;5107248;28;20523;-73
2021/11/14 13:01:40;;;;;;;;;;;12.70;99.90;;;;;;5088277;28;19912;-73
2021/11/14 13:04:06;;;;;;;;;;;12.70;99.90;;;;;;5108717;28;19908;-73
2021/11/14 13:06:33;;;;;;;;;;;12.70;99.90;;;;;;5106476;28;19912;-72
2021/11/14 13:09:18;;;;;;;;;;;12.70;99.90;;;;;;5089277;28;19916;-71
2021/11/14 13:11:43;;;;;;;;;;;12.70;99.90;;;;;;5088251;28;19918;-73
2021/11/14 13:14:11;;;;;;;;;;;12.70;99.90;;;;;;5103370;28;19908;-70
2021/11/14 13:16:37;;;;;;;;;;;12.70;99.90;;;;;;5107815;28;20071;-70
2021/11/14 13:19:05;;;;;;;;;;;12.70;99.90;;;;;;5089211;28;19963;-72
2021/11/14 13:21:36;;;;;;;;;;;12.70;99.90;;;;;;5103880;28;19941;-71
2021/11/14 13:24:09;;;;;;;;;;;12.70;99.90;;;;;;5104916;28;19916;-71
2021/11/14 13:26:39;;;;;;;;;;;12.70;99.90;;;;;;5104223;28;20006;-70
2021/11/14 13:29:07;;;;;;;;;;;12.70;99.90;;;;;;5108475;28;20323;-72
2021/11/14 13:31:32;;;;;;;;;;;12.70;99.90;;;;;;5107168;28;19919;-72